Terminal Aerodrome Forecast
Issued by NWS

Home | Current Version | Previous Version | Text Only | Print | Product List | Glossary On
Versions: 1 2 3 4 5 6 7 8 9 10 11 12 13 14 15
000
FTAK31 PAJN 252300
TAFAPG
TAF
PAPG 252337Z 2600/2624 VRB06KT P6SM VCSH SCT010 OVC025
     FM260300 VRB03KT P6SM VCSH SCT015 BKN030
     FM261200 VRB05KT 6SM BR SCT010 BKN100
     FM261800 VRB05KT P6SM SCT030 BKN100
      AMD LTD TO CLD VIS AND WIND 2606/2615=

USA.gov is the U.S. government's official web portal to all federal, state and local government web resources and services.